Time;durP1;ratioP1;P1;durP2;ratioP2;P2;SDS_P1;SDS_P2;PMS_P1;PMS_P2;Temp;Humidity;BMP_temperature;BMP_pressure;BME280_temperature;BME280_humidity;BME280_pressure;Samples;Min_cycle;Max_cycle;Signal;HPM_P1;HPM_P2
2022/06/24 00:01:54;;;;;;;5.27;4.77;;;;;25.50;100075.00;;;;4950315;28;20296;-66
2022/06/24 00:04:41;;;;;;;5.83;4.47;;;;;25.50;100084.00;;;;4950272;28;20690;-68
2022/06/24 00:07:28;;;;;;;4.47;4.07;;;;;25.40;100083.00;;;;4949078;28;20211;-69
2022/06/24 00:10:14;;;;;;;5.40;4.70;;;;;25.30;100077.00;;;;4948442;28;20750;-69
2022/06/24 00:13:04;;;;;;;4.53;4.13;;;;;25.10;100077.00;;;;4949428;28;20239;-70
2022/06/24 00:15:51;;;;;;;6.50;4.40;;;;;25.10;100070.00;;;;4949905;28;20260;-70
2022/06/24 00:18:37;;;;;;;5.03;4.30;;;;;25.00;100059.00;;;;4949755;28;20686;-69
2022/06/24 00:21:23;;;;;;;14.00;4.23;;;;;24.90;100061.00;;;;4950848;28;20224;-69
2022/06/24 00:24:21;;;;;;;4.90;4.27;;;;;24.90;100068.00;;;;4951345;29;20220;-68
2022/06/24 00:27:18;;;;;;;5.10;4.60;;;;;24.80;100058.00;;;;4949430;28;20846;-68
2022/06/24 00:30:11;;;;;;;6.27;4.60;;;;;24.60;100064.00;;;;4949664;28;20705;-68
2022/06/24 00:33:10;;;;;;;6.17;4.50;;;;;24.60;100064.00;;;;4943740;29;20243;-70
2022/06/24 00:35:59;;;;;;;6.07;5.17;;;;;24.40;100084.00;;;;4950322;28;20340;-68
2022/06/24 00:38:51;;;;;;;5.47;4.57;;;;;24.40;100116.00;;;;4949641;28;20216;-71
2022/06/24 00:41:37;;;;;;;5.83;4.73;;;;;24.40;100096.00;;;;4950239;28;20268;-67
2022/06/24 00:44:27;;;;;;;6.27;4.53;;;;;24.60;100084.00;;;;4949307;28;20289;-69
2022/06/24 00:47:16;;;;;;;5.07;4.57;;;;;24.50;100091.00;;;;4950482;29;20220;-71
2022/06/24 00:50:11;;;;;;;5.23;4.73;;;;;24.40;100091.00;;;;4949220;28;20235;-72
2022/06/24 00:52:59;;;;;;;5.27;4.23;;;;;24.30;100085.00;;;;4949059;28;20232;-69
2022/06/24 00:55:46;;;;;;;5.13;4.33;;;;;24.30;100077.00;;;;4950615;29;20272;-72
2022/06/24 00:58:33;;;;;;;6.93;4.77;;;;;24.20;100084.00;;;;4946327;29;20219;-71
2022/06/24 01:01:27;;;;;;;4.87;4.37;;;;;24.10;100061.00;;;;4950257;28;20247;-71
2022/06/24 01:04:15;;;;;;;4.63;4.20;;;;;24.10;100054.00;;;;4944023;28;20216;-69
2022/06/24 01:07:01;;;;;;;5.40;4.53;;;;;24.10;100056.00;;;;4943215;28;20220;-70
2022/06/24 01:09:48;;;;;;;5.40;4.43;;;;;24.10;100044.00;;;;4946853;29;20245;-69
2022/06/24 01:12:34;;;;;;;6.67;5.10;;;;;24.10;100070.00;;;;4949984;29;20232;-70
2022/06/24 01:15:20;;;;;;;5.20;4.70;;;;;24.10;100086.00;;;;4947760;28;20212;-68
2022/06/24 01:18:08;;;;;;;5.00;4.50;;;;;24.10;100078.00;;;;4949769;29;20215;-71
2022/06/24 01:20:55;;;;;;;7.77;4.83;;;;;24.00;100069.00;;;;4948847;28;20904;-70
2022/06/24 01:23:43;;;;;;;6.40;4.57;;;;;24.00;100076.00;;;;4947353;28;20298;-70
2022/06/24 01:26:29;;;;;;;5.80;4.67;;;;;23.90;100084.00;;;;4947939;28;20344;-68
2022/06/24 01:29:17;;;;;;;6.40;4.80;;;;;23.80;100092.00;;;;4944592;29;20935;-70
2022/06/24 01:32:03;;;;;;;5.40;4.77;;;;;23.80;100089.00;;;;4942331;29;20224;-69
2022/06/24 01:34:49;;;;;;;5.63;4.80;;;;;23.80;100097.00;;;;4947710;28;20216;-69
2022/06/24 01:37:35;;;;;;;4.97;4.47;;;;;23.70;100093.00;;;;4949433;29;20216;-68
2022/06/24 01:40:23;;;;;;;5.43;4.70;;;;;23.70;100103.00;;;;4946869;28;20232;-72
2022/06/24 01:43:09;;;;;;;5.53;4.83;;;;;23.90;100100.00;;;;4949318;28;20248;-70
2022/06/24 01:45:56;;;;;;;5.50;4.73;;;;;23.80;100103.00;;;;4949637;28;20282;-70
2022/06/24 01:48:42;;;;;;;5.57;4.73;;;;;24.00;100104.00;;;;4947647;28;20709;-70
2022/06/24 01:51:29;;;;;;;6.63;5.17;;;;;24.20;100100.00;;;;4948194;28;20323;-67
2022/06/24 01:54:15;;;;;;;6.87;4.87;;;;;24.30;100101.00;;;;4944242;28;20231;-70
2022/06/24 01:57:03;;;;;;;7.00;5.07;;;;;24.30;100110.00;;;;4941137;28;20248;-69
2022/06/24 01:59:51;;;;;;;8.10;5.37;;;;;24.30;100098.00;;;;4947644;28;20231;-69
2022/06/24 02:02:37;;;;;;;7.47;4.87;;;;;24.30;100111.00;;;;4947774;28;20224;-69
2022/06/24 02:05:29;;;;;;;9.23;5.47;;;;;24.40;100099.00;;;;4949145;29;20208;-70
2022/06/24 02:08:16;;;;;;;11.57;5.50;;;;;24.30;100101.00;;;;4947336;28;20895;-69
2022/06/24 02:14:10;;;;;;;11.13;6.60;;;;;24.30;100102.00;;;;4941204;29;20288;-70
2022/06/24 02:16:56;;;;;;;11.57;6.73;;;;;24.10;100110.00;;;;4948421;28;20209;-69
2022/06/24 02:19:42;;;;;;;10.03;6.10;;;;;24.10;100117.00;;;;4946226;28;20240;-70
2022/06/24 02:22:29;;;;;;;12.13;6.80;;;;;24.10;100123.00;;;;4944345;28;20219;-70
2022/06/24 02:25:17;;;;;;;13.40;6.53;;;;;24.00;100132.00;;;;4945005;29;20854;-70
2022/06/24 02:28:04;;;;;;;11.20;6.53;;;;;24.00;100118.00;;;;4942089;29;20241;-70
2022/06/24 02:30:55;;;;;;;23.97;7.00;;;;;23.90;100124.00;;;;4946738;28;20245;-70
2022/06/24 02:33:41;;;;;;;13.33;6.73;;;;;23.90;100132.00;;;;4948466;28;20224;-70
2022/06/24 02:36:28;;;;;;;9.73;6.30;;;;;23.80;100125.00;;;;4947192;28;20251;-68
2022/06/24 02:39:14;;;;;;;11.90;5.77;;;;;23.80;100129.00;;;;4941559;28;20208;-69
2022/06/24 02:42:00;;;;;;;9.47;6.10;;;;;23.80;100121.00;;;;4945279;28;20337;-69
2022/06/24 02:44:47;;;;;;;13.40;5.93;;;;;23.70;100114.00;;;;4946428;29;20697;-68
2022/06/24 02:47:34;;;;;;;9.93;5.70;;;;;23.70;100101.00;;;;4947567;28;20224;-68
2022/06/24 02:50:21;;;;;;;8.83;6.03;;;;;23.60;100115.00;;;;4948139;28;20236;-69
2022/06/24 02:53:07;;;;;;;12.87;6.03;;;;;23.60;100110.00;;;;4944635;28;20224;-69
2022/06/24 02:55:55;;;;;;;9.27;5.63;;;;;23.60;100109.00;;;;4947523;28;21074;-69
2022/06/24 02:58:42;;;;;;;9.37;6.63;;;;;23.60;100101.00;;;;4948005;29;20220;-69
2022/06/24 03:01:29;;;;;;;9.30;6.10;;;;;23.60;100092.00;;;;4947206;28;20232;-69
2022/06/24 03:04:16;;;;;;;8.67;5.73;;;;;23.50;100092.00;;;;4947271;28;20220;-68
2022/06/24 03:07:03;;;;;;;9.57;6.43;;;;;23.50;100102.00;;;;4940341;29;20216;-67
2022/06/24 03:09:50;;;;;;;10.07;5.70;;;;;23.50;100095.00;;;;4947120;28;20228;-69
2022/06/24 03:12:36;;;;;;;13.77;6.13;;;;;23.50;100102.00;;;;4950221;28;20211;-69
2022/06/24 03:15:22;;;;;;;8.73;5.50;;;;;23.50;100113.00;;;;4946522;28;20580;-68
2022/06/24 03:18:09;;;;;;;8.73;5.93;;;;;23.40;100105.00;;;;4950754;29;20212;-70
2022/06/24 03:20:57;;;;;;;9.57;5.97;;;;;23.30;100101.00;;;;4951775;29;20235;-70
2022/06/24 03:23:43;;;;;;;9.10;5.90;;;;;23.40;100097.00;;;;4948597;28;20215;-68
2022/06/24 03:26:29;;;;;;;7.67;5.40;;;;;23.30;100120.00;;;;4948208;28;20236;-69
2022/06/24 03:29:16;;;;;;;7.60;5.60;;;;;23.30;100118.00;;;;4951097;28;20705;-70
2022/06/24 03:32:02;;;;;;;11.33;6.30;;;;;23.30;100107.00;;;;4952160;28;21020;-69
2022/06/24 03:34:48;;;;;;;8.93;5.70;;;;;23.30;100119.00;;;;4950600;28;20231;-67
2022/06/24 03:37:36;;;;;;;10.23;5.70;;;;;23.30;100115.00;;;;4951010;29;20844;-69
2022/06/24 03:40:23;;;;;;;10.67;5.23;;;;;23.30;100106.00;;;;4950017;28;20244;-69
2022/06/24 03:43:09;;;;;;;8.60;5.60;;;;;23.30;100107.00;;;;4947847;29;20213;-70
2022/06/24 03:46:00;;;;;;;7.10;5.43;;;;;23.20;100116.00;;;;4950294;28;20220;-69
2022/06/24 03:48:47;;;;;;;7.53;5.60;;;;;23.20;100127.00;;;;4948420;28;20212;-69
2022/06/24 03:51:33;;;;;;;9.40;5.43;;;;;23.20;100135.00;;;;4950842;28;20240;-70
2022/06/24 03:54:21;;;;;;;12.97;5.43;;;;;23.10;100131.00;;;;4947421;29;20369;-69
2022/06/24 03:57:07;;;;;;;9.00;5.17;;;;;23.20;100120.00;;;;4948906;28;20308;-68
2022/06/24 03:59:54;;;;;;;7.53;5.30;;;;;23.20;100129.00;;;;4948215;28;20327;-68
2022/06/24 04:02:40;;;;;;;8.60;5.87;;;;;23.00;100127.00;;;;4951009;28;20321;-70
2022/06/24 04:05:31;;;;;;;8.57;5.77;;;;;23.00;100126.00;;;;4950558;29;20229;-69
2022/06/24 04:08:18;;;;;;;10.70;5.10;;;;;22.90;100131.00;;;;4950178;28;20698;-67
2022/06/24 04:11:10;;;;;;;10.47;6.10;;;;;22.70;100132.00;;;;4950410;29;20256;-69
2022/06/24 04:13:56;;;;;;;13.67;6.07;;;;;22.60;100121.00;;;;4948674;28;20360;-70
2022/06/24 04:16:42;;;;;;;10.57;6.73;;;;;22.60;100115.00;;;;4950972;28;20216;-71
2022/06/24 04:19:29;;;;;;;11.03;6.50;;;;;22.60;100105.00;;;;4949773;29;20236;-69
2022/06/24 04:22:15;;;;;;;8.27;6.20;;;;;22.50;100083.00;;;;4943112;28;20208;-69
2022/06/24 04:25:01;;;;;;;9.47;6.53;;;;;22.50;100070.00;;;;4949643;28;20692;-69
2022/06/24 04:27:49;;;;;;;9.63;6.60;;;;;22.50;100082.00;;;;4950421;28;20236;-67
2022/06/24 04:30:35;;;;;;;8.67;6.17;;;;;22.50;100077.00;;;;4945847;28;20236;-69
2022/06/24 04:33:21;;;;;;;12.70;6.93;;;;;22.40;100081.00;;;;4949796;28;20307;-69
2022/06/24 04:36:11;;;;;;;8.70;6.60;;;;;22.30;100091.00;;;;4950547;29;20216;-69
2022/06/24 04:38:57;;;;;;;10.73;6.37;;;;;22.40;100079.00;;;;4948333;29;20899;-69
2022/06/24 04:41:43;;;;;;;9.70;7.03;;;;;22.30;100093.00;;;;4949967;28;20741;-70
2022/06/24 04:44:31;;;;;;;9.40;6.73;;;;;22.30;100088.00;;;;4951219;29;20694;-70
2022/06/24 04:47:17;;;;;;;12.00;7.10;;;;;22.30;100092.00;;;;4950010;28;20215;-70
2022/06/24 04:50:04;;;;;;;9.70;6.83;;;;;22.30;100088.00;;;;4951199;28;20244;-71
2022/06/24 04:52:50;;;;;;;13.07;7.33;;;;;22.30;100096.00;;;;4951821;28;20219;-70
2022/06/24 04:55:36;;;;;;;11.40;7.87;;;;;22.30;100101.00;;;;4952090;29;20237;-71
2022/06/24 04:58:23;;;;;;;13.27;7.70;;;;;22.30;100108.00;;;;4952627;29;20482;-70
2022/06/24 05:01:10;;;;;;;10.20;7.07;;;;;22.30;100116.00;;;;4950948;28;21031;-69
2022/06/24 05:03:56;;;;;;;10.90;7.50;;;;;22.30;100105.00;;;;4951456;29;20224;-70
2022/06/24 05:06:43;;;;;;;12.33;7.60;;;;;22.30;100111.00;;;;4947081;29;20901;-70
2022/06/24 05:09:29;;;;;;;13.10;7.37;;;;;22.30;100122.00;;;;4948619;28;20306;-71
2022/06/24 05:12:15;;;;;;;10.70;7.77;;;;;22.20;100110.00;;;;4950948;29;20219;-70
2022/06/24 05:15:02;;;;;;;12.53;8.23;;;;;22.20;100111.00;;;;4946555;29;20236;-70
2022/06/24 05:17:49;;;;;;;13.43;7.90;;;;;22.20;100116.00;;;;4949008;29;20223;-70
2022/06/24 05:20:37;;;;;;;11.03;7.70;;;;;22.20;100132.00;;;;4947363;28;20228;-71
2022/06/24 05:23:23;;;;;;;12.60;7.20;;;;;22.10;100119.00;;;;4950783;29;20236;-71
2022/06/24 05:26:09;;;;;;;12.87;8.10;;;;;22.20;100118.00;;;;4952446;28;20208;-70
2022/06/24 05:28:55;;;;;;;13.00;8.60;;;;;22.10;100120.00;;;;4949730;29;20215;-70
2022/06/24 05:31:44;;;;;;;13.00;8.53;;;;;22.10;100120.00;;;;4949378;28;20323;-71
2022/06/24 05:34:32;;;;;;;12.87;8.33;;;;;22.10;100119.00;;;;4949585;28;20226;-71
2022/06/24 05:37:19;;;;;;;13.53;7.93;;;;;22.10;100133.00;;;;4951021;29;20258;-69
2022/06/24 05:40:06;;;;;;;10.07;7.60;;;;;22.10;100126.00;;;;4947809;28;20817;-70
2022/06/24 05:42:53;;;;;;;12.33;8.70;;;;;22.10;100128.00;;;;4950494;29;20226;-69
2022/06/24 05:45:39;;;;;;;14.97;8.50;;;;;22.00;100129.00;;;;4946329;28;20240;-71
2022/06/24 05:48:27;;;;;;;13.80;8.70;;;;;22.10;100123.00;;;;4945226;29;21082;-70
2022/06/24 05:51:16;;;;;;;15.60;9.00;;;;;22.00;100124.00;;;;4942219;28;20743;-68
2022/06/24 05:57:07;;;;;;;14.67;8.87;;;;;22.00;100130.00;;;;4950393;28;20227;-70
2022/06/24 05:59:53;;;;;;;14.33;9.47;;;;;22.00;100132.00;;;;4948118;29;20266;-69
2022/06/24 06:02:40;;;;;;;15.13;9.67;;;;;22.00;100133.00;;;;4948265;28;20215;-68
2022/06/24 06:05:31;;;;;;;14.27;9.37;;;;;22.00;100140.00;;;;4950772;29;20216;-69
2022/06/24 06:08:20;;;;;;;16.37;10.73;;;;;22.00;100129.00;;;;4947996;28;20295;-70
2022/06/24 06:11:13;;;;;;;14.07;9.93;;;;;22.10;100137.00;;;;4948119;28;20239;-70
2022/06/24 06:14:00;;;;;;;14.57;9.50;;;;;22.10;100143.00;;;;4948771;29;20299;-69
2022/06/24 06:16:47;;;;;;;15.83;9.93;;;;;22.00;100135.00;;;;4949447;28;20225;-68
2022/06/24 06:19:34;;;;;;;16.80;9.47;;;;;22.00;100132.00;;;;4946103;28;20236;-70
2022/06/24 06:22:20;;;;;;;15.73;9.33;;;;;21.90;100120.00;;;;4948831;28;20214;-70
2022/06/24 06:25:09;;;;;;;15.43;9.70;;;;;21.90;100117.00;;;;4956136;28;20610;-70
2022/06/24 06:27:56;;;;;;;22.17;10.57;;;;;22.00;100111.00;;;;4948710;29;20215;-69
2022/06/24 06:30:42;;;;;;;17.57;10.33;;;;;22.00;100104.00;;;;4969186;28;20588;-71
2022/06/24 06:33:30;;;;;;;15.90;9.80;;;;;22.00;100102.00;;;;4974600;28;20587;-70
2022/06/24 06:36:17;;;;;;;14.80;9.83;;;;;22.20;100100.00;;;;4967447;28;20267;-71
2022/06/24 06:39:03;;;;;;;14.40;9.83;;;;;22.30;100094.00;;;;4970100;29;20299;-72
2022/06/24 06:41:51;;;;;;;16.80;9.50;;;;;22.20;100096.00;;;;4973131;29;20899;-72
2022/06/24 06:44:37;;;;;;;14.67;9.03;;;;;22.30;100096.00;;;;4966331;29;20215;-71
2022/06/24 06:47:23;;;;;;;14.40;8.97;;;;;22.40;100089.00;;;;4948405;28;20211;-71
2022/06/24 06:50:10;;;;;;;13.87;8.67;;;;;22.40;100082.00;;;;4947500;28;20768;-70
2022/06/24 06:52:58;;;;;;;12.90;8.63;;;;;22.40;100077.00;;;;4947057;28;20243;-71
2022/06/24 06:55:44;;;;;;;14.00;8.63;;;;;22.50;100080.00;;;;4947916;29;20236;-70
2022/06/24 06:58:35;;;;;;;14.93;9.43;;;;;22.50;100078.00;;;;4942413;29;21000;-71
2022/06/24 07:01:21;;;;;;;14.13;9.70;;;;;22.50;100083.00;;;;4946176;28;20247;-71
2022/06/24 07:04:09;;;;;;;12.70;8.63;;;;;22.40;100079.00;;;;4947531;29;20580;-71
2022/06/24 07:06:55;;;;;;;16.90;10.00;;;;;22.40;100069.00;;;;4948344;29;20764;-71
2022/06/24 07:09:42;;;;;;;14.87;9.77;;;;;22.50;100069.00;;;;4944168;29;20274;-71
2022/06/24 07:12:28;;;;;;;14.77;9.27;;;;;22.50;100068.00;;;;4942787;29;20267;-70
2022/06/24 07:15:17;;;;;;;13.57;9.20;;;;;22.40;100070.00;;;;4946915;28;20903;-69
2022/06/24 07:18:04;;;;;;;15.90;10.07;;;;;22.50;100067.00;;;;4947608;29;20219;-70
2022/06/24 07:20:50;;;;;;;13.73;9.03;;;;;22.50;100069.00;;;;4945328;29;20239;-70
2022/06/24 07:23:36;;;;;;;15.10;9.33;;;;;22.50;100062.00;;;;4943380;28;20689;-71
2022/06/24 07:26:22;;;;;;;14.63;9.60;;;;;22.50;100061.00;;;;4942226;28;20230;-71
2022/06/24 07:29:10;;;;;;;14.90;10.00;;;;;22.50;100065.00;;;;4946550;28;20586;-70
2022/06/24 07:31:58;;;;;;;16.80;9.97;;;;;22.50;100064.00;;;;4946883;28;20733;-71
2022/06/24 07:34:44;;;;;;;16.60;9.80;;;;;22.40;100062.00;;;;4946320;28;20719;-71
2022/06/24 07:37:31;;;;;;;17.97;9.37;;;;;22.40;100056.00;;;;4948095;29;20230;-71
2022/06/24 07:40:17;;;;;;;17.23;10.03;;;;;22.30;100061.00;;;;4946403;28;20239;-69
2022/06/24 07:43:03;;;;;;;13.10;8.97;;;;;22.30;100056.00;;;;4945908;28;20219;-69
2022/06/24 07:45:51;;;;;;;15.40;9.37;;;;;22.30;100057.00;;;;4943123;28;20713;-69
2022/06/24 07:48:39;;;;;;;15.50;9.73;;;;;22.30;100058.00;;;;4947760;28;20251;-69
2022/06/24 07:51:25;;;;;;;14.20;9.17;;;;;22.30;100061.00;;;;4947954;28;20591;-70
2022/06/24 07:54:12;;;;;;;14.20;8.43;;;;;22.20;100069.00;;;;4946591;28;20955;-72
2022/06/24 07:56:57;;;;;;;15.67;9.97;;;;;22.20;100073.00;;;;4947610;28;20775;-71
2022/06/24 07:59:45;;;;;;;12.23;8.07;;;;;22.10;100078.00;;;;4950110;28;20239;-71
2022/06/24 08:02:32;;;;;;;10.13;6.23;;;;;21.90;100070.00;;;;4950784;28;20264;-71
2022/06/24 08:05:21;;;;;;;7.53;5.50;;;;;21.70;100078.00;;;;4945181;28;20216;-68
2022/06/24 08:08:08;;;;;;;9.13;6.20;;;;;21.50;100084.00;;;;4950018;28;20745;-68
2022/06/24 08:10:54;;;;;;;13.00;5.63;;;;;21.40;100087.00;;;;4950161;28;20607;-70
2022/06/24 08:13:40;;;;;;;9.60;5.80;;;;;21.20;100085.00;;;;4945177;28;20299;-71
2022/06/24 08:16:27;;;;;;;6.57;4.80;;;;;21.00;100091.00;;;;4945919;28;20599;-69
2022/06/24 08:19:14;;;;;;;8.33;4.83;;;;;20.90;100093.00;;;;4949358;28;20283;-68
2022/06/24 08:22:02;;;;;;;7.63;4.77;;;;;20.80;100095.00;;;;4949912;28;20910;-71
2022/06/24 08:24:48;;;;;;;6.53;4.53;;;;;20.80;100092.00;;;;4948310;28;20265;-71
2022/06/24 08:27:55;;;;;;;6.10;4.70;;;;;21.00;100087.00;;;;4949869;28;20223;-71
2022/06/24 08:30:41;;;;;;;5.80;4.57;;;;;21.10;100091.00;;;;4946791;28;20288;-70
2022/06/24 08:33:27;;;;;;;7.30;4.70;;;;;21.20;100094.00;;;;4949455;28;20920;-70
2022/06/24 08:36:13;;;;;;;8.43;5.20;;;;;21.30;100090.00;;;;4948900;28;20221;-71
2022/06/24 08:39:01;;;;;;;6.70;4.80;;;;;21.50;100091.00;;;;4949144;28;20706;-70
2022/06/24 08:41:51;;;;;;;5.90;4.70;;;;;21.50;100091.00;;;;4948308;28;20298;-70
2022/06/24 08:44:38;;;;;;;7.20;4.80;;;;;21.70;100093.00;;;;4948191;28;20216;-70
2022/06/24 08:47:24;;;;;;;7.03;4.43;;;;;21.70;100093.00;;;;4949927;28;20221;-71
2022/06/24 08:50:10;;;;;;;7.80;4.77;;;;;21.70;100095.00;;;;4948289;28;20228;-70
2022/06/24 08:52:57;;;;;;;6.80;4.43;;;;;21.70;100093.00;;;;4947493;28;20226;-72
2022/06/24 08:55:48;;;;;;;5.97;4.50;;;;;21.80;100090.00;;;;4947512;29;20297;-71
2022/06/24 08:58:35;;;;;;;5.70;4.30;;;;;21.90;100098.00;;;;4948980;28;20577;-71
2022/06/24 09:01:28;;;;;;;6.10;4.40;;;;;22.10;100106.00;;;;4948575;28;20976;-72
2022/06/24 09:04:14;;;;;;;5.97;3.93;;;;;22.20;100105.00;;;;4947092;28;20256;-72
2022/06/24 09:07:02;;;;;;;4.30;3.13;;;;;22.30;100109.00;;;;4949158;28;20221;-72
2022/06/24 09:09:59;;;;;;;5.23;3.57;;;;;22.50;100115.00;;;;4945985;28;20258;-71
2022/06/24 09:12:49;;;;;;;3.70;2.70;;;;;22.80;100103.00;;;;4944393;28;20604;-71
2022/06/24 09:15:36;;;;;;;8.43;2.83;;;;;23.10;100100.00;;;;4944566;28;20214;-72
2022/06/24 09:18:22;;;;;;;3.10;2.50;;;;;23.20;100097.00;;;;4947501;28;20913;-70
2022/06/24 09:21:20;;;;;;;2.97;2.40;;;;;23.20;100100.00;;;;4948604;28;20260;-71
2022/06/24 09:24:07;;;;;;;3.07;2.50;;;;;23.30;100100.00;;;;4949074;29;20242;-71
2022/06/24 09:27:00;;;;;;;2.93;2.47;;;;;23.20;100100.00;;;;4948835;29;20355;-71
2022/06/24 09:29:49;;;;;;;2.43;2.20;;;;;23.00;100111.00;;;;4948227;29;20255;-70
2022/06/24 09:32:35;;;;;;;3.37;2.17;;;;;23.20;100113.00;;;;4949783;29;20217;-70
2022/06/24 09:35:28;;;;;;;2.73;2.27;;;;;23.00;100110.00;;;;4949347;28;20211;-69
2022/06/24 09:38:15;;;;;;;3.37;2.23;;;;;22.80;100116.00;;;;4946993;28;20228;-71
2022/06/24 09:41:05;;;;;;;3.27;2.50;;;;;22.50;100115.00;;;;4948496;29;20247;-70
2022/06/24 09:43:52;;;;;;;4.43;2.23;;;;;22.50;100117.00;;;;4949798;28;20215;-72
2022/06/24 09:46:41;;;;;;;3.97;2.90;;;;;22.40;100115.00;;;;4947717;29;20223;-71
2022/06/24 09:49:28;;;;;;;3.37;3.00;;;;;22.10;100110.00;;;;4942785;28;20211;-74
2022/06/24 09:52:14;;;;;;;2.90;2.60;;;;;22.10;100112.00;;;;4947551;28;20206;-69
2022/06/24 09:55:02;;;;;;;3.97;3.03;;;;;22.00;100104.00;;;;4947927;28;20302;-72
2022/06/24 09:57:48;;;;;;;4.67;3.30;;;;;22.10;100111.00;;;;4947362;29;20238;-72
2022/06/24 10:00:40;;;;;;;5.83;3.13;;;;;22.30;100116.00;;;;4948815;28;20235;-72
2022/06/24 10:03:28;;;;;;;4.53;3.73;;;;;22.30;100118.00;;;;4948801;28;20210;-71
2022/06/24 10:06:15;;;;;;;5.67;3.63;;;;;22.20;100128.00;;;;4947221;29;20335;-73
2022/06/24 10:09:03;;;;;;;6.47;3.73;;;;;22.20;100122.00;;;;4948044;28;20220;-71
2022/06/24 10:11:54;;;;;;;4.43;3.47;;;;;22.30;100122.00;;;;4948206;28;20238;-70
2022/06/24 10:14:40;;;;;;;6.03;4.33;;;;;22.30;100123.00;;;;4947036;28;20346;-71
2022/06/24 10:17:27;;;;;;;4.73;3.73;;;;;22.20;100120.00;;;;4948303;28;20306;-70
2022/06/24 10:20:17;;;;;;;4.37;3.33;;;;;22.10;100116.00;;;;4946641;28;20239;-73
2022/06/24 10:23:03;;;;;;;5.07;3.90;;;;;22.10;100120.00;;;;4948061;28;20656;-71
2022/06/24 10:25:53;;;;;;;5.13;3.70;;;;;22.10;100116.00;;;;4946453;28;20877;-72
2022/06/24 10:29:20;;;;;;;5.27;4.13;;;;;22.10;100115.00;;;;4943409;28;20293;-70
2022/06/24 10:32:09;;;;;;;5.87;4.33;;;;;22.20;100121.00;;;;4944609;28;20335;-70
2022/06/24 10:34:58;;;;;;;7.23;4.80;;;;;22.20;100110.00;;;;4946066;28;20220;-71
2022/06/24 10:37:51;;;;;;;8.57;5.63;;;;;22.40;100115.00;;;;4947972;28;20226;-70
2022/06/24 10:40:39;;;;;;;7.07;4.83;;;;;22.30;100119.00;;;;4946804;29;20233;-70
2022/06/24 10:43:36;;;;;;;8.40;5.37;;;;;22.40;100105.00;;;;4947436;28;20700;-69
2022/06/24 10:46:22;;;;;;;8.03;5.70;;;;;22.50;100112.00;;;;4948062;28;20218;-70
2022/06/24 10:49:09;;;;;;;10.00;5.53;;;;;22.50;100121.00;;;;4945459;29;20220;-70
2022/06/24 10:51:55;;;;;;;8.83;6.00;;;;;22.60;100124.00;;;;4947428;28;20639;-69
2022/06/24 10:54:43;;;;;;;8.60;4.53;;;;;22.70;100126.00;;;;4942096;28;20214;-69
2022/06/24 10:57:30;;;;;;;8.73;5.33;;;;;22.90;100132.00;;;;4946030;28;20307;-70
2022/06/24 11:00:18;;;;;;;13.30;5.60;;;;;23.20;100130.00;;;;4947574;28;20242;-69
2022/06/24 11:03:13;;;;;;;8.83;6.10;;;;;23.60;100121.00;;;;4944799;29;20223;-68
2022/06/24 11:05:59;;;;;;;8.70;6.17;;;;;24.10;100128.00;;;;4946271;28;20802;-69
2022/06/24 11:08:46;;;;;;;7.60;5.67;;;;;24.50;100129.00;;;;4942759;28;20296;-67
2022/06/24 11:11:35;;;;;;;8.40;5.67;;;;;24.50;100137.00;;;;4945250;28;20248;-69
2022/06/24 11:14:25;;;;;;;8.60;6.30;;;;;24.90;100138.00;;;;4947198;28;20223;-69
2022/06/24 11:17:12;;;;;;;8.87;6.03;;;;;24.80;100147.00;;;;4947418;28;20307;-70
2022/06/24 11:19:58;;;;;;;6.83;5.83;;;;;24.90;100146.00;;;;4946935;28;20805;-68
2022/06/24 11:22:45;;;;;;;6.50;5.60;;;;;25.10;100146.00;;;;4945526;28;20682;-68
2022/06/24 11:25:32;;;;;;;5.70;5.10;;;;;25.30;100149.00;;;;4948339;28;20634;-69
2022/06/24 11:28:21;;;;;;;7.27;5.57;;;;;25.60;100148.00;;;;4948231;29;20224;-68
2022/06/24 11:31:18;;;;;;;7.30;5.47;;;;;25.40;100146.00;;;;4944747;28;20368;-65
2022/06/24 11:34:12;;;;;;;6.67;5.27;;;;;25.40;100158.00;;;;4947160;28;20223;-72
2022/06/24 11:36:59;;;;;;;8.37;5.37;;;;;25.60;100160.00;;;;4948939;28;20252;-72
2022/06/24 11:39:46;;;;;;;6.70;5.40;;;;;25.60;100156.00;;;;4950403;28;20220;-71
2022/06/24 11:42:33;;;;;;;4.90;4.40;;;;;26.00;100152.00;;;;4950518;28;20268;-72
2022/06/24 11:45:35;;;;;;;8.30;5.13;;;;;25.60;100145.00;;;;4948628;29;20343;-72
2022/06/24 11:48:23;;;;;;;6.87;4.93;;;;;25.50;100142.00;;;;4949296;28;20212;-70
2022/06/24 11:51:18;;;;;;;5.37;4.60;;;;;25.90;100153.00;;;;4937428;29;20791;-70
2022/06/24 11:54:07;;;;;;;7.27;5.10;;;;;26.30;100146.00;;;;4951364;28;20787;-70
2022/06/24 11:56:53;;;;;;;6.00;4.80;;;;;26.20;100153.00;;;;4948250;28;20563;-69
2022/06/24 11:59:40;;;;;;;5.60;4.60;;;;;26.20;100151.00;;;;4951418;28;20388;-71
2022/06/24 12:02:28;;;;;;;5.23;4.57;;;;;26.20;100151.00;;;;4950351;28;20212;-72
2022/06/24 12:05:15;;;;;;;6.20;5.60;;;;;26.50;100138.00;;;;4950991;28;20281;-72
2022/06/24 12:08:02;;;;;;;7.00;4.57;;;;;26.80;100140.00;;;;4945480;29;20239;-70
2022/06/24 12:10:50;;;;;;;5.57;4.63;;;;;26.60;100137.00;;;;4949535;28;20554;-72
2022/06/24 12:13:36;;;;;;;5.50;4.67;;;;;26.60;100143.00;;;;4950886;28;20313;-71
2022/06/24 12:16:22;;;;;;;5.50;4.90;;;;;26.60;100132.00;;;;4949599;28;20654;-72
2022/06/24 12:19:10;;;;;;;6.07;5.20;;;;;26.30;100147.00;;;;4951114;29;20232;-71
2022/06/24 12:22:05;;;;;;;4.70;4.30;;;;;25.80;100132.00;;;;4946419;28;20580;-72
2022/06/24 12:25:01;;;;;;;5.87;4.57;;;;;25.80;100129.00;;;;4948900;29;20217;-72
2022/06/24 12:27:49;;;;;;;4.53;4.13;;;;;25.60;100128.00;;;;4951400;29;20215;-70
2022/06/24 12:30:36;;;;;;;6.17;4.33;;;;;25.90;100121.00;;;;4943142;29;20252;-72
2022/06/24 12:33:22;;;;;;;4.80;4.27;;;;;26.40;100115.00;;;;4950325;28;20267;-72
2022/06/24 12:36:12;;;;;;;5.93;4.33;;;;;26.40;100106.00;;;;4951205;29;20755;-70
2022/06/24 12:39:04;;;;;;;4.70;4.20;;;;;26.60;100115.00;;;;4947885;28;20290;-70
2022/06/24 12:41:50;;;;;;;8.07;5.97;;;;;26.30;100120.00;;;;4949748;29;20348;-70
2022/06/24 12:44:44;;;;;;;4.43;4.03;;;;;26.10;100111.00;;;;4943054;28;20208;-70
2022/06/24 12:50:37;;;;;;;4.87;3.90;;;;;26.40;100117.00;;;;4949870;28;20243;-69
2022/06/24 12:53:26;;;;;;;4.80;4.00;;;;;26.20;100116.00;;;;4950276;28;20727;-69
2022/06/24 12:56:12;;;;;;;5.03;3.80;;;;;26.40;100119.00;;;;4946996;28;20209;-69
2022/06/24 12:58:58;;;;;;;4.87;3.37;;;;;27.30;100104.00;;;;4949577;28;20252;-70
2022/06/24 13:01:47;;;;;;;3.47;3.17;;;;;28.10;100101.00;;;;4950670;29;20714;-70
2022/06/24 13:04:34;;;;;;;4.43;3.63;;;;;28.30;100108.00;;;;4948995;28;20204;-68
2022/06/24 13:07:21;;;;;;;3.97;3.40;;;;;27.40;100117.00;;;;4947914;28;20220;-70
2022/06/24 13:10:10;;;;;;;4.28;3.40;;;;;27.00;100113.00;;;;4949257;29;20781;-69
2022/06/24 13:12:56;;;;;;;4.63;3.20;;;;;27.00;100109.00;;;;4944337;28;20248;-72
2022/06/24 13:15:43;;;;;;;3.50;3.20;;;;;27.70;100114.00;;;;4948780;28;20579;-73
2022/06/24 13:18:29;;;;;;;4.72;3.20;;;;;27.60;100119.00;;;;4948382;28;20604;-71
2022/06/24 13:21:15;;;;;;;3.65;2.90;;;;;27.20;100112.00;;;;4948989;28;20267;-69
2022/06/24 13:24:01;;;;;;;3.13;2.70;;;;;27.30;100116.00;;;;4947747;28;20742;-69
2022/06/24 13:26:49;;;;;;;3.22;2.85;;;;;27.50;100118.00;;;;4948164;28;20255;-70
2022/06/24 13:29:36;;;;;;;3.40;3.10;;;;;28.50;100114.00;;;;4948054;28;20292;-68
2022/06/24 13:32:22;;;;;;;3.78;3.30;;;;;28.80;100117.00;;;;4946941;29;20332;-69
2022/06/24 13:35:09;;;;;;;4.97;2.95;;;;;29.10;100116.00;;;;4950477;29;20228;-70
2022/06/24 13:37:55;;;;;;;2.78;2.58;;;;;29.40;100126.00;;;;4948933;28;20223;-69
2022/06/24 13:40:42;;;;;;;5.22;3.03;;;;;29.80;100131.00;;;;4943956;28;20232;-69
2022/06/24 13:43:30;;;;;;;3.50;3.20;;;;;29.90;100125.00;;;;4947547;28;20236;-69
2022/06/24 13:46:16;;;;;;;3.03;2.72;;;;;29.10;100129.00;;;;4947214;29;20647;-69
2022/06/24 13:49:03;;;;;;;4.00;2.80;;;;;28.80;100122.00;;;;4946906;28;20291;-71
2022/06/24 13:51:49;;;;;;;2.80;2.60;;;;;29.00;100125.00;;;;4945151;29;20217;-70
2022/06/24 13:54:35;;;;;;;2.60;2.40;;;;;29.70;100132.00;;;;4947878;28;20658;-69
2022/06/24 13:57:22;;;;;;;4.15;2.55;;;;;30.20;100124.00;;;;4948028;28;20227;-69